Terminal Aerodrome Forecast
Issued by NWS

Home | Current Version | Previous Version | Text Only | Print | Product List | Glossary On
Versions: 1 2 3 4 5 6 7 8 9 10 11 12 13
000
FTAK31 PAJN 200500
TAFASI
TAF
PASI 200525Z 2006/2106 33005KT P6SM FEW005 BKN050
     FM200900 VRB02KT P6SM BCFG SCT025 BKN050
      TEMPO 2009/2013 4SM BR BKN025 BKN050
     FM201300 00000KT 5SM BR FEW015 BKN025 BKN050
     FM201700 27002KT P6SM FEW025 BKN050
     FM201800 27007KT P6SM SCT040 BKN100=

USA.gov is the U.S. government's official web portal to all federal, state and local government web resources and services.